The Eastern Iowa Airport
KCID : rendu visible

Aérodrome :











RETROUVEZ-NOUS SUR...

 
LOGIN :

S'inscrire | Disclaimer

   EN    FR    IT 

 









Légende :    VFR   VFR Marginal   IFR   IFR Intensif   IFR Très Intensif
Visi : 
Plafond : 
>= 8 km
>= 3000ft
5 à 8 km
1000 à 3000 ft
1500m à 5 km
500 à 1000 ft
800 à 1500m
200 à 500 ft
< 800m
< 200 ft
Symboles :   Orages  Brouillard  Fortes neiges  Fortes précipitations  Vent > 20 kt






- Altitude de l'aérodrome : 869 ft
- Code IATA : CID


KCID - The Eastern Iowa

DERNIER METAR :
  • 121752Z 27006KT 10SM CLR M12/M18 A3054 RMK AO2 SLP363 I6000 T11221178 11122 21206 58010

METARs EXPIRÉS :
  • 121652Z 29005KT 10SM CLR M13/M17 A3057 RMK AO2 SLP374 T11281172
  • 121552Z 29005KT 10SM CLR M14/M17 A3057 RMK AO2 SLP376 T11441172

TAF KCID
Valide du 12 à 18h jusqu'au 13 à 18h UTC


121720Z 1218/1318 27006KT P6SM SKC
FM122200 16008KT P6SM BKN250
FM130600 17013G21KT P6SM BKN150



MET'MAP, la Météo Aéronautique d'un coup d'oeil ! - Copyright ORBIFLY Décembre 2007 - Disclaimer

ORBIFLY MET'MAP TEAM :

Programmation & Développement : Alexandra Zaïnal
Conception & Développement : Baudouin d'Aumeries
Co-Programmation & Développement : Marc-Olivier Méhu
Soutien technique & logistique : Manuel Goepfert

Contact : metmap@orbifly.com




SOURCES & CREDITS :

   NOAA       Earth
Advisory